sensor_id;sensor_type;location;lat;lon;timestamp;temperature;humidity
1800;DHT22;919;48.274;12.292;2023-05-09T00:01:23;10.50;99.90
1800;DHT22;919;48.274;12.292;2023-05-09T00:03:52;10.50;99.90
1800;DHT22;919;48.274;12.292;2023-05-09T00:06:18;10.50;99.90
1800;DHT22;919;48.274;12.292;2023-05-09T00:08:46;10.50;99.90
1800;DHT22;919;48.274;12.292;2023-05-09T00:11:14;10.50;99.90
1800;DHT22;919;48.274;12.292;2023-05-09T00:13:41;10.60;99.90
1800;DHT22;919;48.274;12.292;2023-05-09T00:16:09;10.60;99.90
1800;DHT22;919;48.274;12.292;2023-05-09T00:18:36;10.70;99.90
1800;DHT22;919;48.274;12.292;2023-05-09T00:21:03;10.70;99.90
1800;DHT22;919;48.274;12.292;2023-05-09T00:23:29;10.80;99.90
1800;DHT22;919;48.274;12.292;2023-05-09T00:25:56;10.80;99.90
1800;DHT22;919;48.274;12.292;2023-05-09T00:28:24;10.80;99.90
1800;DHT22;919;48.274;12.292;2023-05-09T00:30:51;10.80;99.90
1800;DHT22;919;48.274;12.292;2023-05-09T00:33:18;10.80;99.90
1800;DHT22;919;48.274;12.292;2023-05-09T00:35:45;10.80;99.90
1800;DHT22;919;48.274;12.292;2023-05-09T00:38:12;10.80;99.90
1800;DHT22;919;48.274;12.292;2023-05-09T00:40:39;10.70;99.90
1800;DHT22;919;48.274;12.292;2023-05-09T00:43:05;10.80;99.90
1800;DHT22;919;48.274;12.292;2023-05-09T00:45:33;10.80;99.90
1800;DHT22;919;48.274;12.292;2023-05-09T00:48:00;10.80;99.90
1800;DHT22;919;48.274;12.292;2023-05-09T00:50:27;10.80;99.90
1800;DHT22;919;48.274;12.292;2023-05-09T00:52:54;10.80;99.90
1800;DHT22;919;48.274;12.292;2023-05-09T00:55:21;10.70;99.90
1800;DHT22;919;48.274;12.292;2023-05-09T00:57:48;10.70;99.90
1800;DHT22;919;48.274;12.292;2023-05-09T01:00:15;10.70;99.90
1800;DHT22;919;48.274;12.292;2023-05-09T01:02:46;10.60;99.90
1800;DHT22;919;48.274;12.292;2023-05-09T01:05:13;10.60;99.90
1800;DHT22;919;48.274;12.292;2023-05-09T01:07:45;10.60;99.90
1800;DHT22;919;48.274;12.292;2023-05-09T01:10:22;10.60;99.90
1800;DHT22;919;48.274;12.292;2023-05-09T01:12:57;10.60;99.90
1800;DHT22;919;48.274;12.292;2023-05-09T01:15:28;10.60;99.90
1800;DHT22;919;48.274;12.292;2023-05-09T01:18:02;10.70;99.90
1800;DHT22;919;48.274;12.292;2023-05-09T01:20:32;10.60;99.90
1800;DHT22;919;48.274;12.292;2023-05-09T01:23:18;10.60;99.90
1800;DHT22;919;48.274;12.292;2023-05-09T01:25:56;10.50;99.90
1800;DHT22;919;48.274;12.292;2023-05-09T01:28:52;10.50;99.90
1800;DHT22;919;48.274;12.292;2023-05-09T01:31:23;10.50;99.90
1800;DHT22;919;48.274;12.292;2023-05-09T01:33:53;10.50;99.90
1800;DHT22;919;48.274;12.292;2023-05-09T01:36:21;10.40;99.90
1800;DHT22;919;48.274;12.292;2023-05-09T01:38:50;10.40;99.90
1800;DHT22;919;48.274;12.292;2023-05-09T01:41:18;10.30;99.90
1800;DHT22;919;48.274;12.292;2023-05-09T01:43:48;10.20;99.90
1800;DHT22;919;48.274;12.292;2023-05-09T01:46:17;10.10;99.90
1800;DHT22;919;48.274;12.292;2023-05-09T01:48:47;10.10;99.90
1800;DHT22;919;48.274;12.292;2023-05-09T01:51:15;10.20;99.90
1800;DHT22;919;48.274;12.292;2023-05-09T01:53:43;10.20;99.90
1800;DHT22;919;48.274;12.292;2023-05-09T01:56:11;10.20;99.90
1800;DHT22;919;48.274;12.292;2023-05-09T01:58:38;10.20;99.90
1800;DHT22;919;48.274;12.292;2023-05-09T02:01:07;10.10;99.90
1800;DHT22;919;48.274;12.292;2023-05-09T02:03:36;10.10;99.90
1800;DHT22;919;48.274;12.292;2023-05-09T02:06:06;10.00;99.90
1800;DHT22;919;48.274;12.292;2023-05-09T02:08:34;10.00;99.90
1800;DHT22;919;48.274;12.292;2023-05-09T02:11:01;10.10;99.90
1800;DHT22;919;48.274;12.292;2023-05-09T02:13:28;10.10;99.90
1800;DHT22;919;48.274;12.292;2023-05-09T02:15:55;10.10;99.90
1800;DHT22;919;48.274;12.292;2023-05-09T02:18:22;10.00;99.90
1800;DHT22;919;48.274;12.292;2023-05-09T02:20:49;10.00;99.90
1800;DHT22;919;48.274;12.292;2023-05-09T02:23:17;9.90;99.90
1800;DHT22;919;48.274;12.292;2023-05-09T02:25:45;9.90;99.90
1800;DHT22;919;48.274;12.292;2023-05-09T02:28:12;9.90;99.90
1800;DHT22;919;48.274;12.292;2023-05-09T02:30:43;9.80;99.90
1800;DHT22;919;48.274;12.292;2023-05-09T02:33:11;9.80;99.90
1800;DHT22;919;48.274;12.292;2023-05-09T02:35:41;9.80;99.90
1800;DHT22;919;48.274;12.292;2023-05-09T02:38:08;9.80;99.90
1800;DHT22;919;48.274;12.292;2023-05-09T02:40:36;9.70;99.90
1800;DHT22;919;48.274;12.292;2023-05-09T02:43:04;9.70;99.90
1800;DHT22;919;48.274;12.292;2023-05-09T02:45:31;9.80;99.90
1800;DHT22;919;48.274;12.292;2023-05-09T02:47:58;9.80;99.90
1800;DHT22;919;48.274;12.292;2023-05-09T02:50:25;9.80;99.90
1800;DHT22;919;48.274;12.292;2023-05-09T02:52:52;9.80;99.90
1800;DHT22;919;48.274;12.292;2023-05-09T02:55:18;9.80;99.90
1800;DHT22;919;48.274;12.292;2023-05-09T02:57:46;9.80;99.90
1800;DHT22;919;48.274;12.292;2023-05-09T03:00:14;9.70;99.90
1800;DHT22;919;48.274;12.292;2023-05-09T03:02:42;9.70;99.90
1800;DHT22;919;48.274;12.292;2023-05-09T03:05:09;9.70;99.90
1800;DHT22;919;48.274;12.292;2023-05-09T03:07:36;9.60;99.90
1800;DHT22;919;48.274;12.292;2023-05-09T03:10:03;9.50;99.90
1800;DHT22;919;48.274;12.292;2023-05-09T03:12:30;9.50;99.90
1800;DHT22;919;48.274;12.292;2023-05-09T03:14:58;9.60;99.90
1800;DHT22;919;48.274;12.292;2023-05-09T03:17:25;9.60;99.90
1800;DHT22;919;48.274;12.292;2023-05-09T03:19:53;9.60;99.90
1800;DHT22;919;48.274;12.292;2023-05-09T03:22:20;9.50;99.90
1800;DHT22;919;48.274;12.292;2023-05-09T03:24:46;9.50;99.90
1800;DHT22;919;48.274;12.292;2023-05-09T03:27:13;9.40;99.90
1800;DHT22;919;48.274;12.292;2023-05-09T03:29:40;9.20;99.90
1800;DHT22;919;48.274;12.292;2023-05-09T03:32:08;9.10;99.90
1800;DHT22;919;48.274;12.292;2023-05-09T03:34:35;9.00;99.90
1800;DHT22;919;48.274;12.292;2023-05-09T03:37:01;9.00;99.90
1800;DHT22;919;48.274;12.292;2023-05-09T03:39:28;9.00;99.90
1800;DHT22;919;48.274;12.292;2023-05-09T03:41:55;9.00;99.90
1800;DHT22;919;48.274;12.292;2023-05-09T03:44:21;8.90;99.90
1800;DHT22;919;48.274;12.292;2023-05-09T03:46:48;8.80;99.90
1800;DHT22;919;48.274;12.292;2023-05-09T03:49:16;8.80;99.90
1800;DHT22;919;48.274;12.292;2023-05-09T03:51:43;8.80;99.90
1800;DHT22;919;48.274;12.292;2023-05-09T03:54:10;8.70;99.90
1800;DHT22;919;48.274;12.292;2023-05-09T03:56:37;8.60;99.90
1800;DHT22;919;48.274;12.292;2023-05-09T03:59:03;8.70;99.90
1800;DHT22;919;48.274;12.292;2023-05-09T04:01:30;8.70;99.90
1800;DHT22;919;48.274;12.292;2023-05-09T04:03:57;8.80;99.90
1800;DHT22;919;48.274;12.292;2023-05-09T04:06:25;8.90;99.90
1800;DHT22;919;48.274;12.292;2023-05-09T04:08:52;9.00;99.90
1800;DHT22;919;48.274;12.292;2023-05-09T04:11:19;9.20;99.90
1800;DHT22;919;48.274;12.292;2023-05-09T04:13:46;9.30;99.90
1800;DHT22;919;48.274;12.292;2023-05-09T04:16:12;9.30;99.90
1800;DHT22;919;48.274;12.292;2023-05-09T04:18:39;9.40;99.90
1800;DHT22;919;48.274;12.292;2023-05-09T04:21:06;9.50;99.90
1800;DHT22;919;48.274;12.292;2023-05-09T04:23:34;9.70;99.90
1800;DHT22;919;48.274;12.292;2023-05-09T04:26:03;9.80;99.90
1800;DHT22;919;48.274;12.292;2023-05-09T04:28:30;9.70;99.90
1800;DHT22;919;48.274;12.292;2023-05-09T04:30:56;9.70;99.90
1800;DHT22;919;48.274;12.292;2023-05-09T04:33:23;9.80;99.90
1800;DHT22;919;48.274;12.292;2023-05-09T04:35:50;9.80;99.90
1800;DHT22;919;48.274;12.292;2023-05-09T04:38:17;9.80;99.90
1800;DHT22;919;48.274;12.292;2023-05-09T04:40:45;9.80;99.90
1800;DHT22;919;48.274;12.292;2023-05-09T04:43:11;9.70;99.90
1800;DHT22;919;48.274;12.292;2023-05-09T04:45:38;9.50;99.90
1800;DHT22;919;48.274;12.292;2023-05-09T04:48:05;9.40;99.90
1800;DHT22;919;48.274;12.292;2023-05-09T04:50:31;9.40;99.90
1800;DHT22;919;48.274;12.292;2023-05-09T04:52:58;9.50;99.90
1800;DHT22;919;48.274;12.292;2023-05-09T04:55:25;9.50;99.90
1800;DHT22;919;48.274;12.292;2023-05-09T04:57:53;9.60;99.90
1800;DHT22;919;48.274;12.292;2023-05-09T05:00:20;9.70;99.90
1800;DHT22;919;48.274;12.292;2023-05-09T05:02:47;9.70;99.90
1800;DHT22;919;48.274;12.292;2023-05-09T05:05:13;9.70;99.90
1800;DHT22;919;48.274;12.292;2023-05-09T05:07:40;9.80;99.90
1800;DHT22;919;48.274;12.292;2023-05-09T05:10:08;9.90;99.90
1800;DHT22;919;48.274;12.292;2023-05-09T05:12:35;9.90;99.90
1800;DHT22;919;48.274;12.292;2023-05-09T05:15:04;9.90;99.90
1800;DHT22;919;48.274;12.292;2023-05-09T05:17:31;9.80;99.90
1800;DHT22;919;48.274;12.292;2023-05-09T05:19:58;9.70;99.90
1800;DHT22;919;48.274;12.292;2023-05-09T05:22:24;9.70;99.90
1800;DHT22;919;48.274;12.292;2023-05-09T05:24:51;9.70;99.90
1800;DHT22;919;48.274;12.292;2023-05-09T05:27:17;9.70;99.90
1800;DHT22;919;48.274;12.292;2023-05-09T05:29:44;9.60;99.90
1800;DHT22;919;48.274;12.292;2023-05-09T05:32:12;9.60;99.90
1800;DHT22;919;48.274;12.292;2023-05-09T05:34:39;9.60;99.90
1800;DHT22;919;48.274;12.292;2023-05-09T05:37:06;9.60;99.90
1800;DHT22;919;48.274;12.292;2023-05-09T05:39:32;9.60;99.90
1800;DHT22;919;48.274;12.292;2023-05-09T05:41:59;9.80;99.90
1800;DHT22;919;48.274;12.292;2023-05-09T05:44:26;9.80;99.90
1800;DHT22;919;48.274;12.292;2023-05-09T05:46:52;9.80;99.90
1800;DHT22;919;48.274;12.292;2023-05-09T05:49:20;9.90;99.90
1800;DHT22;919;48.274;12.292;2023-05-09T05:51:49;10.00;99.90
1800;DHT22;919;48.274;12.292;2023-05-09T05:54:16;10.20;99.90
1800;DHT22;919;48.274;12.292;2023-05-09T05:56:43;10.60;99.90
1800;DHT22;919;48.274;12.292;2023-05-09T05:59:09;10.90;99.90
1800;DHT22;919;48.274;12.292;2023-05-09T06:01:36;11.20;99.90
1800;DHT22;919;48.274;12.292;2023-05-09T06:04:03;11.40;99.90
1800;DHT22;919;48.274;12.292;2023-05-09T06:06:31;11.70;99.90
1800;DHT22;919;48.274;12.292;2023-05-09T06:08:58;11.80;99.90
1800;DHT22;919;48.274;12.292;2023-05-09T06:11:25;11.80;99.90
1800;DHT22;919;48.274;12.292;2023-05-09T06:13:52;11.80;99.90
1800;DHT22;919;48.274;12.292;2023-05-09T06:16:18;11.80;99.90
1800;DHT22;919;48.274;12.292;2023-05-09T06:18:46;11.80;99.90
1800;DHT22;919;48.274;12.292;2023-05-09T06:21:12;11.70;99.90
1800;DHT22;919;48.274;12.292;2023-05-09T06:23:40;11.50;99.90
1800;DHT22;919;48.274;12.292;2023-05-09T06:26:07;11.40;99.90
1800;DHT22;919;48.274;12.292;2023-05-09T06:28:34;11.40;99.90
1800;DHT22;919;48.274;12.292;2023-05-09T06:31:01;11.30;99.90
1800;DHT22;919;48.274;12.292;2023-05-09T06:33:28;11.30;99.90
1800;DHT22;919;48.274;12.292;2023-05-09T06:35:55;11.20;99.90
1800;DHT22;919;48.274;12.292;2023-05-09T06:38:21;11.10;99.90
1800;DHT22;919;48.274;12.292;2023-05-09T06:40:50;11.10;99.90
1800;DHT22;919;48.274;12.292;2023-05-09T06:43:16;11.10;99.90
1800;DHT22;919;48.274;12.292;2023-05-09T06:45:43;11.10;99.90
1800;DHT22;919;48.274;12.292;2023-05-09T06:48:10;11.20;99.90
1800;DHT22;919;48.274;12.292;2023-05-09T06:50:37;11.20;99.90
1800;DHT22;919;48.274;12.292;2023-05-09T06:53:04;11.40;99.90
1800;DHT22;919;48.274;12.292;2023-05-09T06:55:30;11.60;99.90
1800;DHT22;919;48.274;12.292;2023-05-09T06:57:58;11.80;99.90
1800;DHT22;919;48.274;12.292;2023-05-09T07:00:25;12.00;99.90
1800;DHT22;919;48.274;12.292;2023-05-09T07:02:52;12.10;99.90
1800;DHT22;919;48.274;12.292;2023-05-09T07:05:19;12.20;99.90
1800;DHT22;919;48.274;12.292;2023-05-09T07:07:46;12.20;99.90
1800;DHT22;919;48.274;12.292;2023-05-09T07:10:12;12.30;99.90
1800;DHT22;919;48.274;12.292;2023-05-09T07:12:39;12.40;99.90
1800;DHT22;919;48.274;12.292;2023-05-09T07:15:09;12.60;99.90
1800;DHT22;919;48.274;12.292;2023-05-09T07:17:35;12.80;99.90
1800;DHT22;919;48.274;12.292;2023-05-09T07:20:03;12.90;99.90
1800;DHT22;919;48.274;12.292;2023-05-09T07:22:30;12.90;99.90
1800;DHT22;919;48.274;12.292;2023-05-09T07:24:57;13.00;99.90
1800;DHT22;919;48.274;12.292;2023-05-09T07:27:23;13.20;99.90
1800;DHT22;919;48.274;12.292;2023-05-09T07:29:50;13.40;99.90
1800;DHT22;919;48.274;12.292;2023-05-09T07:32:18;13.60;99.90
1800;DHT22;919;48.274;12.292;2023-05-09T07:34:45;13.70;99.90
1800;DHT22;919;48.274;12.292;2023-05-09T07:37:12;13.90;99.90
1800;DHT22;919;48.274;12.292;2023-05-09T07:39:39;14.00;99.90
1800;DHT22;919;48.274;12.292;2023-05-09T07:42:06;14.10;99.90
1800;DHT22;919;48.274;12.292;2023-05-09T07:44:33;14.10;99.90
1800;DHT22;919;48.274;12.292;2023-05-09T07:47:00;14.40;99.90
1800;DHT22;919;48.274;12.292;2023-05-09T07:49:28;14.50;99.90
1800;DHT22;919;48.274;12.292;2023-05-09T07:51:55;14.60;99.90
1800;DHT22;919;48.274;12.292;2023-05-09T07:54:22;14.70;99.90
1800;DHT22;919;48.274;12.292;2023-05-09T07:56:49;14.40;99.90
1800;DHT22;919;48.274;12.292;2023-05-09T07:59:15;14.30;99.90
1800;DHT22;919;48.274;12.292;2023-05-09T08:01:43;14.30;99.90
1800;DHT22;919;48.274;12.292;2023-05-09T08:04:09;14.30;99.90
1800;DHT22;919;48.274;12.292;2023-05-09T08:06:38;14.40;99.90
1800;DHT22;919;48.274;12.292;2023-05-09T08:09:05;14.50;99.90
1800;DHT22;919;48.274;12.292;2023-05-09T08:11:32;14.60;99.90
1800;DHT22;919;48.274;12.292;2023-05-09T08:13:59;14.60;99.90
1800;DHT22;919;48.274;12.292;2023-05-09T08:16:25;14.60;99.90
1800;DHT22;919;48.274;12.292;2023-05-09T08:18:52;14.70;99.90
1800;DHT22;919;48.274;12.292;2023-05-09T08:21:50;14.60;99.90
1800;DHT22;919;48.274;12.292;2023-05-09T08:24:08;14.50;99.90
1800;DHT22;919;48.274;12.292;2023-05-09T08:26:35;14.60;99.90
1800;DHT22;919;48.274;12.292;2023-05-09T08:29:02;14.70;99.90
1800;DHT22;919;48.274;12.292;2023-05-09T08:31:29;14.70;99.90
1800;DHT22;919;48.274;12.292;2023-05-09T08:33:56;14.70;99.90
1800;DHT22;919;48.274;12.292;2023-05-09T08:36:22;14.60;99.90
1800;DHT22;919;48.274;12.292;2023-05-09T08:38:49;14.60;99.90
1800;DHT22;919;48.274;12.292;2023-05-09T08:41:19;14.60;99.90
1800;DHT22;919;48.274;12.292;2023-05-09T08:43:51;14.50;99.90
1800;DHT22;919;48.274;12.292;2023-05-09T08:46:22;14.80;99.90
1800;DHT22;919;48.274;12.292;2023-05-09T08:48:50;14.90;99.90
1800;DHT22;919;48.274;12.292;2023-05-09T08:51:18;15.00;99.90
1800;DHT22;919;48.274;12.292;2023-05-09T08:53:46;15.20;99.90
1800;DHT22;919;48.274;12.292;2023-05-09T08:56:13;15.30;99.90
1800;DHT22;919;48.274;12.292;2023-05-09T08:58:41;15.60;99.90
1800;DHT22;919;48.274;12.292;2023-05-09T09:01:09;15.70;99.90
1800;DHT22;919;48.274;12.292;2023-05-09T09:03:37;15.70;99.90
1800;DHT22;919;48.274;12.292;2023-05-09T09:06:06;15.60;99.90
1800;DHT22;919;48.274;12.292;2023-05-09T09:08:34;15.70;99.90
1800;DHT22;919;48.274;12.292;2023-05-09T09:11:02;15.70;99.90
1800;DHT22;919;48.274;12.292;2023-05-09T09:13:29;15.60;99.90
1800;DHT22;919;48.274;12.292;2023-05-09T09:15:58;15.60;99.90
1800;DHT22;919;48.274;12.292;2023-05-09T09:18:29;15.70;99.90
1800;DHT22;919;48.274;12.292;2023-05-09T09:20:58;16.10;99.90
1800;DHT22;919;48.274;12.292;2023-05-09T09:23:28;16.40;99.90
1800;DHT22;919;48.274;12.292;2023-05-09T09:25:59;16.70;99.90
1800;DHT22;919;48.274;12.292;2023-05-09T09:28:26;16.80;99.90
1800;DHT22;919;48.274;12.292;2023-05-09T09:30:53;16.90;99.90
1800;DHT22;919;48.274;12.292;2023-05-09T09:33:23;17.00;99.90
1800;DHT22;919;48.274;12.292;2023-05-09T09:35:52;17.00;99.90
1800;DHT22;919;48.274;12.292;2023-05-09T09:38:19;17.00;99.90
1800;DHT22;919;48.274;12.292;2023-05-09T09:40:52;17.10;99.90
1800;DHT22;919;48.274;12.292;2023-05-09T09:43:25;17.20;99.90
1800;DHT22;919;48.274;12.292;2023-05-09T09:45:52;17.40;99.90
1800;DHT22;919;48.274;12.292;2023-05-09T09:48:24;17.40;99.90
1800;DHT22;919;48.274;12.292;2023-05-09T09:50:53;17.30;99.90
1800;DHT22;919;48.274;12.292;2023-05-09T09:53:21;16.90;99.90
1800;DHT22;919;48.274;12.292;2023-05-09T09:55:49;16.90;99.90
1800;DHT22;919;48.274;12.292;2023-05-09T09:58:17;17.10;99.90
1800;DHT22;919;48.274;12.292;2023-05-09T10:00:46;17.30;99.90
1800;DHT22;919;48.274;12.292;2023-05-09T10:03:15;17.70;99.90
1800;DHT22;919;48.274;12.292;2023-05-09T10:05:43;17.60;99.90
1800;DHT22;919;48.274;12.292;2023-05-09T10:08:10;17.80;99.90
1800;DHT22;919;48.274;12.292;2023-05-09T10:10:37;17.80;99.90
1800;DHT22;919;48.274;12.292;2023-05-09T10:13:06;17.80;99.90
1800;DHT22;919;48.274;12.292;2023-05-09T10:15:34;18.10;99.90
1800;DHT22;919;48.274;12.292;2023-05-09T10:18:01;18.40;99.90
1800;DHT22;919;48.274;12.292;2023-05-09T10:20:29;18.50;99.90
1800;DHT22;919;48.274;12.292;2023-05-09T10:23:01;18.60;99.90
1800;DHT22;919;48.274;12.292;2023-05-09T10:25:37;18.70;99.90
1800;DHT22;919;48.274;12.292;2023-05-09T10:28:09;18.90;99.90
1800;DHT22;919;48.274;12.292;2023-05-09T10:30:43;19.20;99.90
1800;DHT22;919;48.274;12.292;2023-05-09T10:33:15;19.30;99.90
1800;DHT22;919;48.274;12.292;2023-05-09T10:35:47;19.10;99.90
1800;DHT22;919;48.274;12.292;2023-05-09T10:38:17;19.20;99.90
1800;DHT22;919;48.274;12.292;2023-05-09T10:40:45;19.30;99.90
1800;DHT22;919;48.274;12.292;2023-05-09T10:43:13;19.50;99.90
1800;DHT22;919;48.274;12.292;2023-05-09T10:45:39;19.50;99.90
1800;DHT22;919;48.274;12.292;2023-05-09T10:48:07;19.70;99.90
1800;DHT22;919;48.274;12.292;2023-05-09T10:50:35;19.50;99.90
1800;DHT22;919;48.274;12.292;2023-05-09T10:53:09;19.50;99.90
1800;DHT22;919;48.274;12.292;2023-05-09T10:55:52;19.60;99.90
1800;DHT22;919;48.274;12.292;2023-05-09T10:58:22;19.70;99.90
1800;DHT22;919;48.274;12.292;2023-05-09T11:00:52;20.00;99.90
1800;DHT22;919;48.274;12.292;2023-05-09T11:03:19;20.00;99.90
1800;DHT22;919;48.274;12.292;2023-05-09T11:05:46;20.00;99.90
1800;DHT22;919;48.274;12.292;2023-05-09T11:08:21;20.00;99.90
1800;DHT22;919;48.274;12.292;2023-05-09T11:10:51;20.00;99.90
1800;DHT22;919;48.274;12.292;2023-05-09T11:13:19;20.10;99.90
1800;DHT22;919;48.274;12.292;2023-05-09T11:15:50;20.30;99.90
1800;DHT22;919;48.274;12.292;2023-05-09T11:18:17;20.30;99.90
1800;DHT22;919;48.274;12.292;2023-05-09T11:20:44;20.30;99.90
1800;DHT22;919;48.274;12.292;2023-05-09T11:23:14;20.40;99.90
1800;DHT22;919;48.274;12.292;2023-05-09T11:25:44;20.40;99.90
1800;DHT22;919;48.274;12.292;2023-05-09T11:28:25;20.70;99.90
1800;DHT22;919;48.274;12.292;2023-05-09T11:30:52;20.60;99.90
1800;DHT22;919;48.274;12.292;2023-05-09T11:33:23;20.50;99.90
1800;DHT22;919;48.274;12.292;2023-05-09T11:36:15;20.80;99.90
1800;DHT22;919;48.274;12.292;2023-05-09T11:38:42;20.80;99.90
1800;DHT22;919;48.274;12.292;2023-05-09T11:41:10;21.10;99.90
1800;DHT22;919;48.274;12.292;2023-05-09T11:43:39;21.10;99.90
1800;DHT22;919;48.274;12.292;2023-05-09T11:46:07;20.90;99.90
1800;DHT22;919;48.274;12.292;2023-05-09T11:48:37;21.00;99.90
1800;DHT22;919;48.274;12.292;2023-05-09T11:51:03;20.90;99.90
1800;DHT22;919;48.274;12.292;2023-05-09T11:53:30;20.90;99.90
1800;DHT22;919;48.274;12.292;2023-05-09T11:55:58;21.20;99.90
1800;DHT22;919;48.274;12.292;2023-05-09T11:58:27;21.40;99.90
1800;DHT22;919;48.274;12.292;2023-05-09T12:00:56;21.60;99.90
1800;DHT22;919;48.274;12.292;2023-05-09T12:03:23;21.70;99.90
1800;DHT22;919;48.274;12.292;2023-05-09T12:05:49;21.60;99.90
1800;DHT22;919;48.274;12.292;2023-05-09T12:08:16;21.60;99.90
1800;DHT22;919;48.274;12.292;2023-05-09T12:10:43;21.80;99.90
1800;DHT22;919;48.274;12.292;2023-05-09T12:13:10;21.80;99.90
1800;DHT22;919;48.274;12.292;2023-05-09T12:15:37;21.70;99.90
1800;DHT22;919;48.274;12.292;2023-05-09T12:18:06;21.70;99.90
1800;DHT22;919;48.274;12.292;2023-05-09T12:20:40;21.60;99.90
1800;DHT22;919;48.274;12.292;2023-05-09T12:23:08;21.80;99.90
1800;DHT22;919;48.274;12.292;2023-05-09T12:25:35;21.90;99.90
1800;DHT22;919;48.274;12.292;2023-05-09T12:28:02;22.30;99.90
1800;DHT22;919;48.274;12.292;2023-05-09T12:30:29;22.40;99.90
1800;DHT22;919;48.274;12.292;2023-05-09T12:32:57;22.60;99.90
1800;DHT22;919;48.274;12.292;2023-05-09T12:35:26;22.80;99.90
1800;DHT22;919;48.274;12.292;2023-05-09T12:37:57;22.80;99.90
1800;DHT22;919;48.274;12.292;2023-05-09T12:40:24;22.60;99.90
1800;DHT22;919;48.274;12.292;2023-05-09T12:42:51;22.90;99.90
1800;DHT22;919;48.274;12.292;2023-05-09T12:45:24;22.90;99.90
1800;DHT22;919;48.274;12.292;2023-05-09T12:47:52;22.80;99.90
1800;DHT22;919;48.274;12.292;2023-05-09T12:50:18;22.60;99.90
1800;DHT22;919;48.274;12.292;2023-05-09T12:52:50;22.50;99.90
1800;DHT22;919;48.274;12.292;2023-05-09T12:55:18;22.50;99.90
1800;DHT22;919;48.274;12.292;2023-05-09T12:57:57;22.50;99.90
1800;DHT22;919;48.274;12.292;2023-05-09T13:00:24;22.30;99.90
1800;DHT22;919;48.274;12.292;2023-05-09T13:02:51;22.20;99.90
1800;DHT22;919;48.274;12.292;2023-05-09T13:05:20;22.10;99.90
1800;DHT22;919;48.274;12.292;2023-05-09T13:07:49;22.00;99.90
1800;DHT22;919;48.274;12.292;2023-05-09T13:10:18;22.20;99.90
1800;DHT22;919;48.274;12.292;2023-05-09T13:12:48;22.30;99.90
1800;DHT22;919;48.274;12.292;2023-05-09T13:15:18;22.40;99.90
1800;DHT22;919;48.274;12.292;2023-05-09T13:17:50;22.50;99.90
1800;DHT22;919;48.274;12.292;2023-05-09T13:20:18;22.50;99.90
1800;DHT22;919;48.274;12.292;2023-05-09T13:22:45;22.40;99.90
1800;DHT22;919;48.274;12.292;2023-05-09T13:25:13;22.40;99.90
1800;DHT22;919;48.274;12.292;2023-05-09T13:27:41;22.40;99.90
1800;DHT22;919;48.274;12.292;2023-05-09T13:30:08;22.30;99.90
1800;DHT22;919;48.274;12.292;2023-05-09T13:32:35;22.20;99.90
1800;DHT22;919;48.274;12.292;2023-05-09T13:35:02;22.10;99.90
1800;DHT22;919;48.274;12.292;2023-05-09T13:37:30;22.10;99.90
1800;DHT22;919;48.274;12.292;2023-05-09T13:39:57;22.00;99.90
1800;DHT22;919;48.274;12.292;2023-05-09T13:42:26;22.10;99.90
1800;DHT22;919;48.274;12.292;2023-05-09T13:44:52;22.20;99.90
1800;DHT22;919;48.274;12.292;2023-05-09T13:47:19;21.90;99.90
1800;DHT22;919;48.274;12.292;2023-05-09T13:49:46;21.70;99.90
1800;DHT22;919;48.274;12.292;2023-05-09T13:52:12;21.80;99.90
1800;DHT22;919;48.274;12.292;2023-05-09T13:54:40;22.00;99.90
1800;DHT22;919;48.274;12.292;2023-05-09T13:57:07;22.20;99.90
1800;DHT22;919;48.274;12.292;2023-05-09T13:59:35;22.20;99.90
1800;DHT22;919;48.274;12.292;2023-05-09T14:02:02;22.30;99.90
1800;DHT22;919;48.274;12.292;2023-05-09T14:04:29;22.40;99.90
1800;DHT22;919;48.274;12.292;2023-05-09T14:06:57;22.40;99.90
1800;DHT22;919;48.274;12.292;2023-05-09T14:09:24;22.30;99.90
1800;DHT22;919;48.274;12.292;2023-05-09T14:11:53;22.30;99.90
1800;DHT22;919;48.274;12.292;2023-05-09T14:14:21;22.40;99.90
1800;DHT22;919;48.274;12.292;2023-05-09T14:16:49;22.50;99.90
1800;DHT22;919;48.274;12.292;2023-05-09T14:19:16;22.50;99.90
1800;DHT22;919;48.274;12.292;2023-05-09T14:21:44;22.50;99.90
1800;DHT22;919;48.274;12.292;2023-05-09T14:24:11;22.60;99.90
1800;DHT22;919;48.274;12.292;2023-05-09T14:26:38;22.50;99.90
1800;DHT22;919;48.274;12.292;2023-05-09T14:29:05;22.50;99.90
1800;DHT22;919;48.274;12.292;2023-05-09T14:31:32;22.50;99.90
1800;DHT22;919;48.274;12.292;2023-05-09T14:34:00;22.40;99.90
1800;DHT22;919;48.274;12.292;2023-05-09T14:36:29;22.30;99.90
1800;DHT22;919;48.274;12.292;2023-05-09T14:38:57;22.30;99.90
1800;DHT22;919;48.274;12.292;2023-05-09T14:41:23;22.40;99.90
1800;DHT22;919;48.274;12.292;2023-05-09T14:43:50;22.40;99.90
1800;DHT22;919;48.274;12.292;2023-05-09T14:46:17;22.20;99.90
1800;DHT22;919;48.274;12.292;2023-05-09T14:48:44;22.10;99.90
1800;DHT22;919;48.274;12.292;2023-05-09T14:51:12;22.10;99.90
1800;DHT22;919;48.274;12.292;2023-05-09T14:53:39;22.00;99.90
1800;DHT22;919;48.274;12.292;2023-05-09T14:56:06;22.00;99.90
1800;DHT22;919;48.274;12.292;2023-05-09T14:58:34;21.90;99.90
1800;DHT22;919;48.274;12.292;2023-05-09T15:01:00;21.70;99.90
1800;DHT22;919;48.274;12.292;2023-05-09T15:03:27;21.80;99.90
1800;DHT22;919;48.274;12.292;2023-05-09T15:05:54;21.80;99.90
1800;DHT22;919;48.274;12.292;2023-05-09T15:08:25;21.90;99.90
1800;DHT22;919;48.274;12.292;2023-05-09T15:10:51;22.10;99.90
1800;DHT22;919;48.274;12.292;2023-05-09T15:13:18;22.30;99.90
1800;DHT22;919;48.274;12.292;2023-05-09T15:15:45;22.40;99.90
1800;DHT22;919;48.274;12.292;2023-05-09T15:18:12;22.40;99.90
1800;DHT22;919;48.274;12.292;2023-05-09T15:20:40;22.30;99.90
1800;DHT22;919;48.274;12.292;2023-05-09T15:23:07;22.30;99.90
1800;DHT22;919;48.274;12.292;2023-05-09T15:25:36;22.30;99.90
1800;DHT22;919;48.274;12.292;2023-05-09T15:28:02;22.40;99.90
1800;DHT22;919;48.274;12.292;2023-05-09T15:30:29;22.30;99.90
1800;DHT22;919;48.274;12.292;2023-05-09T15:32:56;22.20;99.90
1800;DHT22;919;48.274;12.292;2023-05-09T15:35:23;22.20;99.90
1800;DHT22;919;48.274;12.292;2023-05-09T15:37:50;22.20;99.90
1800;DHT22;919;48.274;12.292;2023-05-09T15:40:17;22.20;99.90
1800;DHT22;919;48.274;12.292;2023-05-09T15:42:45;22.40;99.90
1800;DHT22;919;48.274;12.292;2023-05-09T15:45:13;22.30;99.90
1800;DHT22;919;48.274;12.292;2023-05-09T15:47:40;22.30;99.90
1800;DHT22;919;48.274;12.292;2023-05-09T15:50:07;22.20;99.90
1800;DHT22;919;48.274;12.292;2023-05-09T15:52:34;22.20;99.90
1800;DHT22;919;48.274;12.292;2023-05-09T15:55:01;22.10;99.90
1800;DHT22;919;48.274;12.292;2023-05-09T15:57:28;22.10;99.90
1800;DHT22;919;48.274;12.292;2023-05-09T15:59:57;21.90;99.90
1800;DHT22;919;48.274;12.292;2023-05-09T16:02:24;21.60;99.90
1800;DHT22;919;48.274;12.292;2023-05-09T16:04:52;21.50;99.90
1800;DHT22;919;48.274;12.292;2023-05-09T16:07:18;21.30;99.90
1800;DHT22;919;48.274;12.292;2023-05-09T16:09:45;21.10;99.90